sensor_id;sensor_type;location;lat;lon;timestamp;P1;durP1;ratioP1;P2;durP2;ratioP2
3311;SDS011;1668;49.648;8.570;2023-02-15T00:02:10;35.43;;;17.30;;
3311;SDS011;1668;49.648;8.570;2023-02-15T00:07:42;33.60;;;17.80;;
3311;SDS011;1668;49.648;8.570;2023-02-15T00:10:09;30.30;;;16.77;;
3311;SDS011;1668;49.648;8.570;2023-02-15T00:12:37;33.63;;;18.07;;
3311;SDS011;1668;49.648;8.570;2023-02-15T00:15:04;35.77;;;19.30;;
3311;SDS011;1668;49.648;8.570;2023-02-15T00:17:32;33.10;;;17.47;;
3311;SDS011;1668;49.648;8.570;2023-02-15T00:19:59;33.50;;;16.60;;
3311;SDS011;1668;49.648;8.570;2023-02-15T00:22:31;29.13;;;16.60;;
3311;SDS011;1668;49.648;8.570;2023-02-15T00:25:00;31.90;;;16.60;;
3311;SDS011;1668;49.648;8.570;2023-02-15T00:27:29;34.17;;;17.20;;
3311;SDS011;1668;49.648;8.570;2023-02-15T00:29:55;34.20;;;16.93;;
3311;SDS011;1668;49.648;8.570;2023-02-15T00:32:22;35.93;;;17.53;;
3311;SDS011;1668;49.648;8.570;2023-02-15T00:34:50;38.83;;;16.53;;
3311;SDS011;1668;49.648;8.570;2023-02-15T00:37:17;30.70;;;15.60;;
3311;SDS011;1668;49.648;8.570;2023-02-15T00:39:44;33.40;;;17.40;;
3311;SDS011;1668;49.648;8.570;2023-02-15T00:42:11;32.10;;;16.37;;
3311;SDS011;1668;49.648;8.570;2023-02-15T00:44:37;31.00;;;16.70;;
3311;SDS011;1668;49.648;8.570;2023-02-15T00:47:04;31.73;;;17.67;;
3311;SDS011;1668;49.648;8.570;2023-02-15T00:49:31;28.43;;;16.53;;
3311;SDS011;1668;49.648;8.570;2023-02-15T00:51:59;26.03;;;15.23;;
3311;SDS011;1668;49.648;8.570;2023-02-15T00:54:26;27.97;;;15.37;;
3311;SDS011;1668;49.648;8.570;2023-02-15T00:56:52;25.27;;;14.40;;
3311;SDS011;1668;49.648;8.570;2023-02-15T00:59:19;26.73;;;14.60;;
3311;SDS011;1668;49.648;8.570;2023-02-15T01:01:46;28.03;;;16.07;;
3311;SDS011;1668;49.648;8.570;2023-02-15T01:04:13;28.17;;;15.50;;
3311;SDS011;1668;49.648;8.570;2023-02-15T01:06:40;31.60;;;16.07;;
3311;SDS011;1668;49.648;8.570;2023-02-15T01:09:08;28.20;;;15.00;;
3311;SDS011;1668;49.648;8.570;2023-02-15T01:11:34;23.17;;;13.93;;
3311;SDS011;1668;49.648;8.570;2023-02-15T01:14:01;28.10;;;14.87;;
3311;SDS011;1668;49.648;8.570;2023-02-15T01:16:29;29.80;;;15.90;;
3311;SDS011;1668;49.648;8.570;2023-02-15T01:18:55;27.20;;;14.17;;
3311;SDS011;1668;49.648;8.570;2023-02-15T01:21:23;28.57;;;16.43;;
3311;SDS011;1668;49.648;8.570;2023-02-15T01:23:51;28.20;;;15.50;;
3311;SDS011;1668;49.648;8.570;2023-02-15T01:26:19;26.20;;;14.43;;
3311;SDS011;1668;49.648;8.570;2023-02-15T01:28:46;27.20;;;15.43;;
3311;SDS011;1668;49.648;8.570;2023-02-15T01:31:14;28.80;;;15.20;;
3311;SDS011;1668;49.648;8.570;2023-02-15T01:33:42;26.00;;;14.17;;
3311;SDS011;1668;49.648;8.570;2023-02-15T01:36:09;27.70;;;14.60;;
3311;SDS011;1668;49.648;8.570;2023-02-15T01:38:36;29.83;;;15.87;;
3311;SDS011;1668;49.648;8.570;2023-02-15T01:41:05;27.10;;;15.03;;
3311;SDS011;1668;49.648;8.570;2023-02-15T01:43:50;28.10;;;15.13;;
3311;SDS011;1668;49.648;8.570;2023-02-15T01:46:19;30.50;;;16.13;;
3311;SDS011;1668;49.648;8.570;2023-02-15T01:48:49;28.47;;;15.17;;
3311;SDS011;1668;49.648;8.570;2023-02-15T01:51:20;30.53;;;16.17;;
3311;SDS011;1668;49.648;8.570;2023-02-15T01:53:50;29.10;;;16.10;;
3311;SDS011;1668;49.648;8.570;2023-02-15T01:56:20;26.90;;;14.87;;
3311;SDS011;1668;49.648;8.570;2023-02-15T01:58:52;26.37;;;14.87;;
3311;SDS011;1668;49.648;8.570;2023-02-15T02:01:22;27.67;;;15.40;;
3311;SDS011;1668;49.648;8.570;2023-02-15T02:03:53;29.50;;;16.07;;
3311;SDS011;1668;49.648;8.570;2023-02-15T02:06:25;25.30;;;13.90;;
3311;SDS011;1668;49.648;8.570;2023-02-15T02:08:53;29.80;;;15.40;;
3311;SDS011;1668;49.648;8.570;2023-02-15T02:11:20;27.70;;;14.23;;
3311;SDS011;1668;49.648;8.570;2023-02-15T02:13:47;27.23;;;15.70;;
3311;SDS011;1668;49.648;8.570;2023-02-15T02:16:19;28.63;;;15.37;;
3311;SDS011;1668;49.648;8.570;2023-02-15T02:18:53;27.10;;;15.33;;
3311;SDS011;1668;49.648;8.570;2023-02-15T02:27:32;26.40;;;14.40;;
3311;SDS011;1668;49.648;8.570;2023-02-15T02:33:10;30.20;;;14.60;;
3311;SDS011;1668;49.648;8.570;2023-02-15T02:36:00;29.93;;;15.03;;
3311;SDS011;1668;49.648;8.570;2023-02-15T02:38:37;23.97;;;13.10;;
3311;SDS011;1668;49.648;8.570;2023-02-15T02:41:12;27.13;;;15.80;;
3311;SDS011;1668;49.648;8.570;2023-02-15T02:43:47;25.73;;;14.07;;
3311;SDS011;1668;49.648;8.570;2023-02-15T02:46:20;25.60;;;13.70;;
3311;SDS011;1668;49.648;8.570;2023-02-15T02:48:52;26.17;;;13.40;;
3311;SDS011;1668;49.648;8.570;2023-02-15T02:51:19;23.30;;;13.60;;
3311;SDS011;1668;49.648;8.570;2023-02-15T02:53:48;23.27;;;12.77;;
3311;SDS011;1668;49.648;8.570;2023-02-15T02:56:18;22.73;;;13.13;;
3311;SDS011;1668;49.648;8.570;2023-02-15T02:58:50;24.23;;;13.53;;
3311;SDS011;1668;49.648;8.570;2023-02-15T03:01:22;25.20;;;13.20;;
3311;SDS011;1668;49.648;8.570;2023-02-15T03:03:55;21.60;;;12.83;;
3311;SDS011;1668;49.648;8.570;2023-02-15T03:06:27;24.13;;;13.77;;
3311;SDS011;1668;49.648;8.570;2023-02-15T03:08:57;22.00;;;12.70;;
3311;SDS011;1668;49.648;8.570;2023-02-15T03:11:27;23.43;;;14.20;;
3311;SDS011;1668;49.648;8.570;2023-02-15T03:13:55;23.07;;;13.10;;
3311;SDS011;1668;49.648;8.570;2023-02-15T03:16:22;21.57;;;12.73;;
3311;SDS011;1668;49.648;8.570;2023-02-15T03:18:53;23.27;;;13.00;;
3311;SDS011;1668;49.648;8.570;2023-02-15T03:21:29;21.00;;;12.20;;
3311;SDS011;1668;49.648;8.570;2023-02-15T03:23:59;20.73;;;12.27;;
3311;SDS011;1668;49.648;8.570;2023-02-15T03:26:31;21.20;;;11.60;;
3311;SDS011;1668;49.648;8.570;2023-02-15T03:29:00;21.43;;;12.00;;
3311;SDS011;1668;49.648;8.570;2023-02-15T03:31:31;20.97;;;11.90;;
3311;SDS011;1668;49.648;8.570;2023-02-15T03:34:04;21.53;;;12.30;;
3311;SDS011;1668;49.648;8.570;2023-02-15T03:36:35;21.53;;;13.00;;
3311;SDS011;1668;49.648;8.570;2023-02-15T03:39:10;20.27;;;12.30;;
3311;SDS011;1668;49.648;8.570;2023-02-15T03:41:45;20.60;;;11.60;;
3311;SDS011;1668;49.648;8.570;2023-02-15T03:44:17;21.03;;;11.70;;
3311;SDS011;1668;49.648;8.570;2023-02-15T03:46:47;20.03;;;11.67;;
3311;SDS011;1668;49.648;8.570;2023-02-15T03:49:21;22.00;;;12.30;;
3311;SDS011;1668;49.648;8.570;2023-02-15T03:51:51;20.60;;;12.43;;
3311;SDS011;1668;49.648;8.570;2023-02-15T03:54:23;20.70;;;11.87;;
3311;SDS011;1668;49.648;8.570;2023-02-15T03:57:12;22.43;;;12.40;;
3311;SDS011;1668;49.648;8.570;2023-02-15T03:59:58;18.40;;;11.00;;
3311;SDS011;1668;49.648;8.570;2023-02-15T04:02:47;16.87;;;11.30;;
3311;SDS011;1668;49.648;8.570;2023-02-15T04:05:24;20.87;;;11.90;;
3311;SDS011;1668;49.648;8.570;2023-02-15T04:07:51;22.57;;;13.23;;
3311;SDS011;1668;49.648;8.570;2023-02-15T04:10:18;21.47;;;11.93;;
3311;SDS011;1668;49.648;8.570;2023-02-15T04:13:02;23.37;;;12.40;;
3311;SDS011;1668;49.648;8.570;2023-02-15T04:15:29;21.50;;;12.50;;
3311;SDS011;1668;49.648;8.570;2023-02-15T04:18:13;20.67;;;11.57;;
3311;SDS011;1668;49.648;8.570;2023-02-15T04:20:44;19.67;;;10.80;;
3311;SDS011;1668;49.648;8.570;2023-02-15T04:23:28;20.03;;;11.90;;
3311;SDS011;1668;49.648;8.570;2023-02-15T04:26:12;20.80;;;11.40;;
3311;SDS011;1668;49.648;8.570;2023-02-15T04:28:39;20.47;;;12.20;;
3311;SDS011;1668;49.648;8.570;2023-02-15T04:31:06;20.37;;;12.70;;
3311;SDS011;1668;49.648;8.570;2023-02-15T04:33:32;24.17;;;12.63;;
3311;SDS011;1668;49.648;8.570;2023-02-15T04:36:02;21.13;;;12.63;;
3311;SDS011;1668;49.648;8.570;2023-02-15T04:38:29;19.70;;;12.13;;
3311;SDS011;1668;49.648;8.570;2023-02-15T04:40:56;21.73;;;12.33;;
3311;SDS011;1668;49.648;8.570;2023-02-15T04:43:22;19.70;;;11.50;;
3311;SDS011;1668;49.648;8.570;2023-02-15T04:45:49;21.97;;;12.00;;
3311;SDS011;1668;49.648;8.570;2023-02-15T04:48:17;25.13;;;12.50;;
3311;SDS011;1668;49.648;8.570;2023-02-15T04:50:44;21.40;;;12.07;;
3311;SDS011;1668;49.648;8.570;2023-02-15T04:53:12;22.10;;;12.50;;
3311;SDS011;1668;49.648;8.570;2023-02-15T04:55:41;21.63;;;11.97;;
3311;SDS011;1668;49.648;8.570;2023-02-15T04:58:08;20.20;;;11.70;;
3311;SDS011;1668;49.648;8.570;2023-02-15T05:00:35;24.30;;;13.10;;
3311;SDS011;1668;49.648;8.570;2023-02-15T05:03:01;19.70;;;11.67;;
3311;SDS011;1668;49.648;8.570;2023-02-15T05:05:28;21.57;;;11.93;;
3311;SDS011;1668;49.648;8.570;2023-02-15T05:07:55;22.80;;;12.90;;
3311;SDS011;1668;49.648;8.570;2023-02-15T05:10:23;24.70;;;12.60;;
3311;SDS011;1668;49.648;8.570;2023-02-15T05:12:50;23.37;;;12.10;;
3311;SDS011;1668;49.648;8.570;2023-02-15T05:15:17;23.17;;;13.23;;
3311;SDS011;1668;49.648;8.570;2023-02-15T05:17:44;26.53;;;12.87;;
3311;SDS011;1668;49.648;8.570;2023-02-15T05:20:10;23.53;;;12.60;;
3311;SDS011;1668;49.648;8.570;2023-02-15T05:22:37;24.93;;;13.77;;
3311;SDS011;1668;49.648;8.570;2023-02-15T05:25:05;30.30;;;14.80;;
3311;SDS011;1668;49.648;8.570;2023-02-15T05:27:51;25.03;;;12.50;;
3311;SDS011;1668;49.648;8.570;2023-02-15T05:30:35;31.47;;;14.80;;
3311;SDS011;1668;49.648;8.570;2023-02-15T05:33:04;28.83;;;14.60;;
3311;SDS011;1668;49.648;8.570;2023-02-15T05:35:31;30.30;;;14.50;;
3311;SDS011;1668;49.648;8.570;2023-02-15T05:37:58;33.20;;;14.80;;
3311;SDS011;1668;49.648;8.570;2023-02-15T05:40:25;29.10;;;14.60;;
3311;SDS011;1668;49.648;8.570;2023-02-15T05:42:53;29.63;;;14.97;;
3311;SDS011;1668;49.648;8.570;2023-02-15T05:45:20;29.80;;;15.50;;
3311;SDS011;1668;49.648;8.570;2023-02-15T05:47:47;27.60;;;15.17;;
3311;SDS011;1668;49.648;8.570;2023-02-15T05:50:13;31.20;;;14.63;;
3311;SDS011;1668;49.648;8.570;2023-02-15T05:52:41;31.40;;;14.87;;
3311;SDS011;1668;49.648;8.570;2023-02-15T05:55:08;32.30;;;13.77;;
3311;SDS011;1668;49.648;8.570;2023-02-15T05:57:35;30.30;;;15.00;;
3311;SDS011;1668;49.648;8.570;2023-02-15T06:00:03;31.07;;;14.77;;
3311;SDS011;1668;49.648;8.570;2023-02-15T06:02:33;33.90;;;15.93;;
3311;SDS011;1668;49.648;8.570;2023-02-15T06:04:59;33.60;;;15.80;;
3311;SDS011;1668;49.648;8.570;2023-02-15T06:07:27;34.60;;;15.20;;
3311;SDS011;1668;49.648;8.570;2023-02-15T06:09:54;38.60;;;16.30;;
3311;SDS011;1668;49.648;8.570;2023-02-15T06:12:21;32.40;;;14.93;;
3311;SDS011;1668;49.648;8.570;2023-02-15T06:14:47;33.00;;;15.50;;
3311;SDS011;1668;49.648;8.570;2023-02-15T06:17:15;27.63;;;14.20;;
3311;SDS011;1668;49.648;8.570;2023-02-15T06:19:42;27.87;;;15.03;;
3311;SDS011;1668;49.648;8.570;2023-02-15T06:22:09;29.00;;;13.87;;
3311;SDS011;1668;49.648;8.570;2023-02-15T06:24:38;31.37;;;14.60;;
3311;SDS011;1668;49.648;8.570;2023-02-15T06:27:07;27.93;;;14.90;;
3311;SDS011;1668;49.648;8.570;2023-02-15T06:29:34;25.27;;;13.40;;
3311;SDS011;1668;49.648;8.570;2023-02-15T06:32:01;30.47;;;15.30;;
3311;SDS011;1668;49.648;8.570;2023-02-15T06:34:29;32.80;;;15.00;;
3311;SDS011;1668;49.648;8.570;2023-02-15T06:36:56;30.23;;;14.77;;
3311;SDS011;1668;49.648;8.570;2023-02-15T06:39:23;31.87;;;13.90;;
3311;SDS011;1668;49.648;8.570;2023-02-15T06:41:49;28.67;;;13.80;;
3311;SDS011;1668;49.648;8.570;2023-02-15T06:44:16;30.90;;;14.30;;
3311;SDS011;1668;49.648;8.570;2023-02-15T06:46:43;32.00;;;14.30;;
3311;SDS011;1668;49.648;8.570;2023-02-15T06:49:10;30.70;;;14.47;;
3311;SDS011;1668;49.648;8.570;2023-02-15T06:51:38;31.20;;;15.13;;
3311;SDS011;1668;49.648;8.570;2023-02-15T06:54:05;29.13;;;14.53;;
3311;SDS011;1668;49.648;8.570;2023-02-15T06:56:32;30.70;;;15.20;;
3311;SDS011;1668;49.648;8.570;2023-02-15T06:58:59;31.40;;;14.93;;
3311;SDS011;1668;49.648;8.570;2023-02-15T07:01:25;32.03;;;14.97;;
3311;SDS011;1668;49.648;8.570;2023-02-15T07:03:52;34.10;;;14.13;;
3311;SDS011;1668;49.648;8.570;2023-02-15T07:06:19;30.67;;;15.27;;
3311;SDS011;1668;49.648;8.570;2023-02-15T07:08:47;27.87;;;13.97;;
3311;SDS011;1668;49.648;8.570;2023-02-15T07:11:14;29.30;;;13.37;;
3311;SDS011;1668;49.648;8.570;2023-02-15T07:13:58;29.40;;;14.50;;
3311;SDS011;1668;49.648;8.570;2023-02-15T07:16:25;29.93;;;14.37;;
3311;SDS011;1668;49.648;8.570;2023-02-15T07:18:51;28.40;;;14.90;;
3311;SDS011;1668;49.648;8.570;2023-02-15T07:21:18;33.10;;;14.17;;
3311;SDS011;1668;49.648;8.570;2023-02-15T07:23:45;30.30;;;13.40;;
3311;SDS011;1668;49.648;8.570;2023-02-15T07:26:14;33.53;;;14.77;;
3311;SDS011;1668;49.648;8.570;2023-02-15T07:28:40;29.63;;;13.87;;
3311;SDS011;1668;49.648;8.570;2023-02-15T07:31:07;28.10;;;13.77;;
3311;SDS011;1668;49.648;8.570;2023-02-15T07:33:34;31.37;;;14.00;;
3311;SDS011;1668;49.648;8.570;2023-02-15T07:36:02;29.90;;;14.77;;
3311;SDS011;1668;49.648;8.570;2023-02-15T07:38:31;30.10;;;14.57;;
3311;SDS011;1668;49.648;8.570;2023-02-15T07:40:59;30.30;;;14.27;;
3311;SDS011;1668;49.648;8.570;2023-02-15T07:43:28;27.70;;;13.07;;
3311;SDS011;1668;49.648;8.570;2023-02-15T07:45:58;26.23;;;14.17;;
3311;SDS011;1668;49.648;8.570;2023-02-15T07:48:32;26.47;;;13.50;;
3311;SDS011;1668;49.648;8.570;2023-02-15T07:50:59;26.33;;;13.17;;
3311;SDS011;1668;49.648;8.570;2023-02-15T07:53:26;30.80;;;13.67;;
3311;SDS011;1668;49.648;8.570;2023-02-15T07:55:54;26.03;;;13.50;;
3311;SDS011;1668;49.648;8.570;2023-02-15T07:58:24;24.67;;;13.67;;
3311;SDS011;1668;49.648;8.570;2023-02-15T08:01:12;30.93;;;14.70;;
3311;SDS011;1668;49.648;8.570;2023-02-15T08:03:39;28.67;;;15.07;;
3311;SDS011;1668;49.648;8.570;2023-02-15T08:06:06;28.80;;;15.00;;
3311;SDS011;1668;49.648;8.570;2023-02-15T08:08:34;31.80;;;14.90;;
3311;SDS011;1668;49.648;8.570;2023-02-15T08:11:03;31.50;;;15.43;;
3311;SDS011;1668;49.648;8.570;2023-02-15T08:13:49;31.20;;;14.93;;
3311;SDS011;1668;49.648;8.570;2023-02-15T08:16:23;27.73;;;14.00;;
3311;SDS011;1668;49.648;8.570;2023-02-15T08:18:50;29.10;;;13.90;;
3311;SDS011;1668;49.648;8.570;2023-02-15T08:21:17;31.03;;;15.03;;
3311;SDS011;1668;49.648;8.570;2023-02-15T08:23:44;27.77;;;14.20;;
3311;SDS011;1668;49.648;8.570;2023-02-15T08:26:11;35.13;;;16.73;;
3311;SDS011;1668;49.648;8.570;2023-02-15T08:28:38;32.60;;;16.33;;
3311;SDS011;1668;49.648;8.570;2023-02-15T08:31:06;31.17;;;15.10;;
3311;SDS011;1668;49.648;8.570;2023-02-15T08:33:35;30.10;;;14.90;;
3311;SDS011;1668;49.648;8.570;2023-02-15T08:36:03;29.87;;;15.40;;
3311;SDS011;1668;49.648;8.570;2023-02-15T08:38:30;27.90;;;14.60;;
3311;SDS011;1668;49.648;8.570;2023-02-15T08:40:58;32.50;;;15.53;;
3311;SDS011;1668;49.648;8.570;2023-02-15T08:43:34;33.23;;;15.97;;
3311;SDS011;1668;49.648;8.570;2023-02-15T08:46:01;30.00;;;16.00;;
3311;SDS011;1668;49.648;8.570;2023-02-15T08:48:28;29.97;;;16.30;;
3311;SDS011;1668;49.648;8.570;2023-02-15T08:50:56;34.10;;;18.03;;
3311;SDS011;1668;49.648;8.570;2023-02-15T08:53:23;30.80;;;15.80;;
3311;SDS011;1668;49.648;8.570;2023-02-15T08:55:54;33.20;;;16.30;;
3311;SDS011;1668;49.648;8.570;2023-02-15T08:58:22;30.40;;;15.20;;
3311;SDS011;1668;49.648;8.570;2023-02-15T09:00:48;36.63;;;16.80;;
3311;SDS011;1668;49.648;8.570;2023-02-15T09:03:15;35.80;;;18.80;;
3311;SDS011;1668;49.648;8.570;2023-02-15T09:05:42;33.07;;;20.03;;
3311;SDS011;1668;49.648;8.570;2023-02-15T09:08:10;32.70;;;19.30;;
3311;SDS011;1668;49.648;8.570;2023-02-15T09:10:37;32.63;;;18.90;;
3311;SDS011;1668;49.648;8.570;2023-02-15T09:13:04;35.83;;;19.47;;
3311;SDS011;1668;49.648;8.570;2023-02-15T09:15:30;39.00;;;18.60;;
3311;SDS011;1668;49.648;8.570;2023-02-15T09:17:57;38.13;;;18.87;;
3311;SDS011;1668;49.648;8.570;2023-02-15T09:20:26;37.23;;;18.90;;
3311;SDS011;1668;49.648;8.570;2023-02-15T09:22:53;34.77;;;18.53;;
3311;SDS011;1668;49.648;8.570;2023-02-15T09:25:21;31.27;;;17.23;;
3311;SDS011;1668;49.648;8.570;2023-02-15T09:27:49;30.43;;;15.83;;
3311;SDS011;1668;49.648;8.570;2023-02-15T09:30:16;37.13;;;17.47;;
3311;SDS011;1668;49.648;8.570;2023-02-15T09:32:43;32.20;;;16.93;;
3311;SDS011;1668;49.648;8.570;2023-02-15T09:35:11;34.90;;;17.77;;
3311;SDS011;1668;49.648;8.570;2023-02-15T09:37:38;34.50;;;17.53;;
3311;SDS011;1668;49.648;8.570;2023-02-15T09:40:05;29.40;;;16.73;;
3311;SDS011;1668;49.648;8.570;2023-02-15T09:45:52;30.03;;;14.97;;
3311;SDS011;1668;49.648;8.570;2023-02-15T09:48:38;30.17;;;18.20;;
3311;SDS011;1668;49.648;8.570;2023-02-15T09:51:12;37.60;;;19.07;;
3311;SDS011;1668;49.648;8.570;2023-02-15T09:53:49;39.03;;;20.70;;
3311;SDS011;1668;49.648;8.570;2023-02-15T09:56:27;33.17;;;17.53;;
3311;SDS011;1668;49.648;8.570;2023-02-15T09:59:00;34.23;;;17.63;;
3311;SDS011;1668;49.648;8.570;2023-02-15T10:01:42;29.63;;;17.10;;
3311;SDS011;1668;49.648;8.570;2023-02-15T10:04:24;30.50;;;16.97;;
3311;SDS011;1668;49.648;8.570;2023-02-15T10:07:04;30.60;;;17.10;;
3311;SDS011;1668;49.648;8.570;2023-02-15T10:09:43;32.37;;;17.30;;
3311;SDS011;1668;49.648;8.570;2023-02-15T10:12:24;32.20;;;17.27;;
3311;SDS011;1668;49.648;8.570;2023-02-15T10:15:16;38.43;;;21.00;;
3311;SDS011;1668;49.648;8.570;2023-02-15T10:17:56;47.00;;;24.43;;
3311;SDS011;1668;49.648;8.570;2023-02-15T10:20:46;50.67;;;24.37;;
3311;SDS011;1668;49.648;8.570;2023-02-15T10:23:29;45.40;;;23.40;;
3311;SDS011;1668;49.648;8.570;2023-02-15T10:26:19;48.30;;;25.17;;
3311;SDS011;1668;49.648;8.570;2023-02-15T10:28:48;43.40;;;24.07;;
3311;SDS011;1668;49.648;8.570;2023-02-15T10:31:22;39.27;;;23.00;;
3311;SDS011;1668;49.648;8.570;2023-02-15T10:34:05;39.33;;;21.80;;
3311;SDS011;1668;49.648;8.570;2023-02-15T10:36:49;45.03;;;23.07;;
3311;SDS011;1668;49.648;8.570;2023-02-15T10:39:46;35.30;;;20.00;;
3311;SDS011;1668;49.648;8.570;2023-02-15T10:42:20;39.07;;;20.77;;
3311;SDS011;1668;49.648;8.570;2023-02-15T10:44:58;40.17;;;23.33;;
3311;SDS011;1668;49.648;8.570;2023-02-15T10:47:43;37.63;;;22.90;;
3311;SDS011;1668;49.648;8.570;2023-02-15T10:50:47;39.00;;;21.10;;
3311;SDS011;1668;49.648;8.570;2023-02-15T10:56:23;36.90;;;22.00;;
3311;SDS011;1668;49.648;8.570;2023-02-15T10:58:59;36.40;;;20.17;;
3311;SDS011;1668;49.648;8.570;2023-02-15T11:01:38;36.10;;;20.13;;
3311;SDS011;1668;49.648;8.570;2023-02-15T11:04:33;40.90;;;21.80;;
3311;SDS011;1668;49.648;8.570;2023-02-15T11:07:12;33.17;;;20.07;;
3311;SDS011;1668;49.648;8.570;2023-02-15T11:09:43;34.47;;;18.60;;
3311;SDS011;1668;49.648;8.570;2023-02-15T11:12:14;36.20;;;20.03;;
3311;SDS011;1668;49.648;8.570;2023-02-15T11:14:46;31.33;;;20.10;;
3311;SDS011;1668;49.648;8.570;2023-02-15T11:17:21;34.40;;;19.67;;
3311;SDS011;1668;49.648;8.570;2023-02-15T11:19:53;35.40;;;20.67;;
3311;SDS011;1668;49.648;8.570;2023-02-15T11:22:27;32.60;;;19.30;;
3311;SDS011;1668;49.648;8.570;2023-02-15T11:24:55;32.20;;;20.10;;
3311;SDS011;1668;49.648;8.570;2023-02-15T11:27:25;33.90;;;19.83;;
3311;SDS011;1668;49.648;8.570;2023-02-15T11:29:57;32.47;;;19.23;;
3311;SDS011;1668;49.648;8.570;2023-02-15T11:32:27;34.40;;;18.90;;
3311;SDS011;1668;49.648;8.570;2023-02-15T11:34:58;37.77;;;20.20;;
3311;SDS011;1668;49.648;8.570;2023-02-15T11:37:31;37.10;;;21.97;;
3311;SDS011;1668;49.648;8.570;2023-02-15T11:40:03;39.53;;;22.67;;
3311;SDS011;1668;49.648;8.570;2023-02-15T11:42:43;33.40;;;20.47;;
3311;SDS011;1668;49.648;8.570;2023-02-15T11:45:17;40.37;;;22.60;;
3311;SDS011;1668;49.648;8.570;2023-02-15T11:47:49;41.80;;;22.67;;
3311;SDS011;1668;49.648;8.570;2023-02-15T11:50:17;39.70;;;20.17;;
3311;SDS011;1668;49.648;8.570;2023-02-15T11:52:49;37.93;;;21.37;;
3311;SDS011;1668;49.648;8.570;2023-02-15T11:55:19;36.73;;;21.87;;
3311;SDS011;1668;49.648;8.570;2023-02-15T11:57:50;39.93;;;23.87;;
3311;SDS011;1668;49.648;8.570;2023-02-15T12:00:24;36.87;;;22.03;;
3311;SDS011;1668;49.648;8.570;2023-02-15T12:03:03;38.67;;;21.20;;
3311;SDS011;1668;49.648;8.570;2023-02-15T12:05:39;34.20;;;19.80;;
3311;SDS011;1668;49.648;8.570;2023-02-15T12:08:13;30.17;;;18.07;;
3311;SDS011;1668;49.648;8.570;2023-02-15T12:10:46;32.77;;;18.43;;
3311;SDS011;1668;49.648;8.570;2023-02-15T12:13:24;30.80;;;18.67;;
3311;SDS011;1668;49.648;8.570;2023-02-15T12:15:53;31.37;;;19.17;;
3311;SDS011;1668;49.648;8.570;2023-02-15T12:18:27;37.23;;;20.37;;
3311;SDS011;1668;49.648;8.570;2023-02-15T12:21:02;36.17;;;19.83;;
3311;SDS011;1668;49.648;8.570;2023-02-15T12:23:33;33.23;;;19.30;;
3311;SDS011;1668;49.648;8.570;2023-02-15T12:26:05;34.63;;;20.00;;
3311;SDS011;1668;49.648;8.570;2023-02-15T12:28:33;31.67;;;19.20;;
3311;SDS011;1668;49.648;8.570;2023-02-15T12:31:01;33.97;;;19.30;;
3311;SDS011;1668;49.648;8.570;2023-02-15T12:33:33;32.97;;;19.80;;
3311;SDS011;1668;49.648;8.570;2023-02-15T12:36:03;34.77;;;20.47;;
3311;SDS011;1668;49.648;8.570;2023-02-15T12:38:38;34.87;;;19.97;;
3311;SDS011;1668;49.648;8.570;2023-02-15T12:41:10;33.20;;;19.43;;
3311;SDS011;1668;49.648;8.570;2023-02-15T12:43:49;36.00;;;21.13;;
3311;SDS011;1668;49.648;8.570;2023-02-15T12:46:30;34.47;;;20.60;;
3311;SDS011;1668;49.648;8.570;2023-02-15T12:49:04;36.80;;;21.03;;
3311;SDS011;1668;49.648;8.570;2023-02-15T12:51:47;37.40;;;22.10;;
3311;SDS011;1668;49.648;8.570;2023-02-15T12:54:32;32.40;;;20.50;;
3311;SDS011;1668;49.648;8.570;2023-02-15T12:57:24;43.17;;;23.77;;
3311;SDS011;1668;49.648;8.570;2023-02-15T12:59:54;41.17;;;23.57;;
3311;SDS011;1668;49.648;8.570;2023-02-15T13:02:27;39.50;;;24.20;;
3311;SDS011;1668;49.648;8.570;2023-02-15T13:04:57;43.97;;;25.97;;
3311;SDS011;1668;49.648;8.570;2023-02-15T13:07:32;50.23;;;29.40;;
3311;SDS011;1668;49.648;8.570;2023-02-15T13:10:00;49.70;;;30.67;;
3311;SDS011;1668;49.648;8.570;2023-02-15T13:12:28;48.80;;;26.93;;
3311;SDS011;1668;49.648;8.570;2023-02-15T13:14:57;44.27;;;25.67;;
3311;SDS011;1668;49.648;8.570;2023-02-15T13:17:27;41.93;;;25.13;;
3311;SDS011;1668;49.648;8.570;2023-02-15T13:19:57;39.40;;;23.10;;
3311;SDS011;1668;49.648;8.570;2023-02-15T13:22:28;43.03;;;23.67;;
3311;SDS011;1668;49.648;8.570;2023-02-15T13:25:03;37.13;;;22.73;;
3311;SDS011;1668;49.648;8.570;2023-02-15T13:27:37;39.87;;;23.77;;
3311;SDS011;1668;49.648;8.570;2023-02-15T13:30:10;40.93;;;24.87;;
3311;SDS011;1668;49.648;8.570;2023-02-15T13:32:44;41.70;;;24.23;;
3311;SDS011;1668;49.648;8.570;2023-02-15T13:35:15;39.17;;;24.10;;
3311;SDS011;1668;49.648;8.570;2023-02-15T13:37:54;42.90;;;25.83;;
3311;SDS011;1668;49.648;8.570;2023-02-15T13:40:31;38.90;;;24.03;;
3311;SDS011;1668;49.648;8.570;2023-02-15T13:43:04;40.50;;;23.03;;
3311;SDS011;1668;49.648;8.570;2023-02-15T13:45:52;39.03;;;24.73;;
3311;SDS011;1668;49.648;8.570;2023-02-15T13:48:29;40.27;;;24.13;;
3311;SDS011;1668;49.648;8.570;2023-02-15T13:51:07;45.53;;;26.40;;
3311;SDS011;1668;49.648;8.570;2023-02-15T13:53:43;40.27;;;24.97;;
3311;SDS011;1668;49.648;8.570;2023-02-15T13:56:28;41.03;;;25.37;;
3311;SDS011;1668;49.648;8.570;2023-02-15T13:59:16;44.40;;;25.20;;
3311;SDS011;1668;49.648;8.570;2023-02-15T14:02:27;44.00;;;27.37;;
3311;SDS011;1668;49.648;8.570;2023-02-15T14:05:06;43.77;;;25.03;;
3311;SDS011;1668;49.648;8.570;2023-02-15T14:08:01;44.80;;;26.70;;
3311;SDS011;1668;49.648;8.570;2023-02-15T14:10:39;42.60;;;26.57;;
3311;SDS011;1668;49.648;8.570;2023-02-15T14:16:12;44.30;;;27.10;;
3311;SDS011;1668;49.648;8.570;2023-02-15T14:18:46;41.03;;;26.97;;
3311;SDS011;1668;49.648;8.570;2023-02-15T14:21:22;44.03;;;26.13;;
3311;SDS011;1668;49.648;8.570;2023-02-15T14:23:57;43.07;;;26.27;;
3311;SDS011;1668;49.648;8.570;2023-02-15T14:26:35;46.40;;;26.30;;
3311;SDS011;1668;49.648;8.570;2023-02-15T14:29:11;54.67;;;27.67;;
3311;SDS011;1668;49.648;8.570;2023-02-15T14:31:45;47.37;;;27.20;;
3311;SDS011;1668;49.648;8.570;2023-02-15T14:34:18;44.57;;;27.27;;
3311;SDS011;1668;49.648;8.570;2023-02-15T14:36:48;41.77;;;26.43;;
3311;SDS011;1668;49.648;8.570;2023-02-15T14:39:21;41.17;;;25.43;;
3311;SDS011;1668;49.648;8.570;2023-02-15T14:42:14;41.67;;;24.93;;
3311;SDS011;1668;49.648;8.570;2023-02-15T14:44:48;44.27;;;26.57;;
3311;SDS011;1668;49.648;8.570;2023-02-15T14:47:20;46.37;;;27.50;;
3311;SDS011;1668;49.648;8.570;2023-02-15T14:49:51;41.30;;;26.47;;
3311;SDS011;1668;49.648;8.570;2023-02-15T14:52:18;45.93;;;27.83;;
3311;SDS011;1668;49.648;8.570;2023-02-15T14:54:58;43.97;;;27.50;;
3311;SDS011;1668;49.648;8.570;2023-02-15T14:57:26;47.70;;;27.77;;
3311;SDS011;1668;49.648;8.570;2023-02-15T14:59:58;46.57;;;28.87;;
3311;SDS011;1668;49.648;8.570;2023-02-15T15:02:27;48.40;;;28.87;;
3311;SDS011;1668;49.648;8.570;2023-02-15T15:05:06;49.87;;;29.93;;
3311;SDS011;1668;49.648;8.570;2023-02-15T15:07:36;47.27;;;29.93;;
3311;SDS011;1668;49.648;8.570;2023-02-15T15:10:05;50.67;;;30.10;;
3311;SDS011;1668;49.648;8.570;2023-02-15T15:12:54;50.20;;;29.87;;
3311;SDS011;1668;49.648;8.570;2023-02-15T15:15:32;50.00;;;28.60;;
3311;SDS011;1668;49.648;8.570;2023-02-15T15:18:03;46.97;;;28.30;;
3311;SDS011;1668;49.648;8.570;2023-02-15T15:20:38;47.27;;;28.33;;
3311;SDS011;1668;49.648;8.570;2023-02-15T15:29:13;46.13;;;28.17;;
3311;SDS011;1668;49.648;8.570;2023-02-15T15:31:59;43.50;;;26.50;;
3311;SDS011;1668;49.648;8.570;2023-02-15T15:34:34;54.40;;;32.70;;
3311;SDS011;1668;49.648;8.570;2023-02-15T15:43:38;46.63;;;27.50;;
3311;SDS011;1668;49.648;8.570;2023-02-15T15:49:17;48.77;;;28.53;;
3311;SDS011;1668;49.648;8.570;2023-02-15T15:51:46;53.10;;;30.33;;
3311;SDS011;1668;49.648;8.570;2023-02-15T15:54:14;59.30;;;32.10;;